PWSweather.com
Personal Weather Stations
Station Observations
SHAHALMS1
Eftra, Falkenberg, HA

EftraFalkenberg, HA

Lat: 56.85, Lon: 12.65

Elevation: 140

Station Type:

http://hem.passagen.se/risarp101

High Low Average
Temperature 70.3°F21.3°C 54.1°F12.3°C 63.6°F17.6°C
Dew Point 67.9°F19.9°C 47.8°F8.8°C 58.5°F14.7°C
Winds 6.8 mph 10.9 kmh Calm Calm 3.0 mph S4.8 kmh S
Wind Gusts 16.1 mph25.9 kmh -- 8.0 mph12.9 kmh
Humidity 93% 70% 84%
Pressure 29.92 in1013.2 mb 29.71 in1006.1 mb -
Precipitation 0.48 in12.2 mm - -
Hour Temp Dew Point Humidity Winds Wind Gusts Pressure Precip Precip Rate Daily Precip Total
12:00 AM 69.1°F20.6°C 63.0°F17.2°C 81% 7.9 mph SE12.7 kmh SE 16.8 mph27.0 kmh 29.83 in1010.2 mb 0.00 in0.0 mm 0.00 in0.0 mm 0.00 in0.0 mm
12:10 AM 69.1°F20.6°C 63.4°F17.4°C 82% 9.3 mph SE15.0 kmh SE 21.5 mph34.6 kmh 29.83 in1010.2 mb 0.00 in0.0 mm 0.00 in0.0 mm 0.00 in0.0 mm
12:20 AM 68.5°F20.3°C 62.8°F17.1°C 82% 9.9 mph ESE15.9 kmh ESE 18.3 mph29.5 kmh 29.83 in1010.2 mb 0.00 in0.0 mm 0.00 in0.0 mm 0.00 in0.0 mm
12:30 AM 68.4°F20.2°C 63.3°F17.4°C 84% 8.2 mph SE13.2 kmh SE 16.1 mph25.9 kmh 29.83 in1010.2 mb 0.00 in0.0 mm 0.00 in0.0 mm 0.00 in0.0 mm
12:40 AM 68.2°F20.1°C 63.5°F17.5°C 85% 7.0 mph ESE11.3 kmh ESE 16.8 mph27.0 kmh 29.80 in1009.1 mb 0.00 in0.0 mm 0.00 in0.0 mm 0.00 in0.0 mm
12:50 AM 68.2°F20.1°C 63.8°F17.7°C 86% 7.1 mph ESE11.4 kmh ESE 17.5 mph28.2 kmh 29.80 in1009.1 mb 0.00 in0.0 mm 0.00 in0.0 mm 0.00 in0.0 mm
01:00 AM 68.4°F20.2°C 63.7°F17.6°C 85% 4.3 mph SE6.9 kmh SE 15.7 mph25.3 kmh 29.83 in1010.2 mb 0.00 in0.0 mm 0.00 in0.0 mm 0.00 in0.0 mm
01:10 AM 68.2°F20.1°C 63.5°F17.5°C 85% 2.8 mph SE4.5 kmh SE 11.5 mph18.5 kmh 29.80 in1009.1 mb 0.00 in0.0 mm 0.00 in0.0 mm 0.00 in0.0 mm
01:20 AM 68.2°F20.1°C 63.5°F17.5°C 85% 2.8 mph E4.5 kmh E 9.3 mph15.0 kmh 29.80 in1009.1 mb 0.00 in0.0 mm 0.00 in0.0 mm 0.00 in0.0 mm
01:30 AM 68.0°F20.0°C 63.0°F17.2°C 84% 6.1 mph E9.8 kmh E 15.7 mph25.3 kmh 29.80 in1009.1 mb 0.00 in0.0 mm 0.00 in0.0 mm 0.00 in0.0 mm
01:40 AM 68.0°F20.0°C 63.0°F17.2°C 84% 6.0 mph E9.7 kmh E 12.2 mph19.6 kmh 29.80 in1009.1 mb 0.00 in0.0 mm 0.00 in0.0 mm 0.00 in0.0 mm
01:50 AM 67.8°F19.9°C 63.1°F17.3°C 85% 4.2 mph SSE6.8 kmh SSE 10.4 mph16.7 kmh 29.80 in1009.1 mb 0.00 in0.0 mm 0.00 in0.0 mm 0.00 in0.0 mm
02:00 AM 67.8°F19.9°C 63.1°F17.3°C 85% 5.5 mph SE8.9 kmh SE 16.1 mph25.9 kmh 29.80 in1009.1 mb 0.00 in0.0 mm 0.00 in0.0 mm 0.00 in0.0 mm
02:10 AM 67.6°F19.8°C 63.0°F17.2°C 85% 1.6 mph SSE2.6 kmh SSE 5.4 mph8.7 kmh 29.80 in1009.1 mb 0.00 in0.0 mm 0.00 in0.0 mm 0.00 in0.0 mm
02:20 AM 67.5°F19.7°C 62.5°F16.9°C 84% 3.2 mph ESE5.1 kmh ESE 9.7 mph15.6 kmh 29.80 in1009.1 mb 0.00 in0.0 mm 0.00 in0.0 mm 0.00 in0.0 mm
02:30 AM 67.1°F19.5°C 62.1°F16.7°C 84% 0.1 mph E0.2 kmh E 6.1 mph9.8 kmh 29.80 in1009.1 mb 0.00 in0.0 mm 0.00 in0.0 mm 0.00 in0.0 mm
02:40 AM 66.9°F19.4°C 62.3°F16.8°C 85% 3.8 mph E6.1 kmh E 10.4 mph16.7 kmh 29.77 in1008.1 mb 0.00 in0.0 mm 0.00 in0.0 mm 0.00 in0.0 mm
02:50 AM 66.6°F19.2°C 62.2°F16.8°C 86% 5.8 mph E9.3 kmh E 11.5 mph18.5 kmh 29.77 in1008.1 mb 0.00 in0.0 mm 0.00 in0.0 mm 0.00 in0.0 mm
03:00 AM 66.0°F18.9°C 62.0°F16.7°C 87% 0.1 mph E0.2 kmh E 4.7 mph7.6 kmh 29.77 in1008.1 mb 0.00 in0.0 mm 0.00 in0.0 mm 0.00 in0.0 mm
03:10 AM 65.5°F18.6°C 61.5°F16.4°C 87% 0.8 mph E1.3 kmh E 6.4 mph10.3 kmh 29.74 in1007.1 mb 0.00 in0.0 mm 0.00 in0.0 mm 0.00 in0.0 mm
03:20 AM 65.1°F18.4°C 61.2°F16.2°C 87% 2.5 mph E4.0 kmh E 6.8 mph10.9 kmh 29.74 in1007.1 mb 0.00 in0.0 mm 0.00 in0.0 mm 0.00 in0.0 mm
03:30 AM 64.9°F18.3°C 61.3°F16.3°C 88% 2.5 mph E4.0 kmh E 6.8 mph10.9 kmh 29.77 in1008.1 mb 0.00 in0.0 mm 0.00 in0.0 mm 0.00 in0.0 mm
03:40 AM 64.8°F18.2°C 61.4°F16.3°C 89% 4.0 mph E6.4 kmh E 9.7 mph15.6 kmh 29.77 in1008.1 mb 0.00 in0.0 mm 0.00 in0.0 mm 0.00 in0.0 mm
03:50 AM 64.8°F18.2°C 61.4°F16.3°C 89% 3.8 mph E6.1 kmh E 10.4 mph16.7 kmh 29.77 in1008.1 mb 0.00 in0.0 mm 0.00 in0.0 mm 0.00 in0.0 mm
04:00 AM 64.8°F18.2°C 61.8°F16.6°C 90% 5.9 mph E9.5 kmh E 10.4 mph16.7 kmh 29.74 in1007.1 mb 0.00 in0.0 mm 0.00 in0.0 mm 0.00 in0.0 mm
04:10 AM 64.8°F18.2°C 62.1°F16.7°C 91% 4.5 mph E7.2 kmh E 12.5 mph20.1 kmh 29.71 in1006.1 mb 0.00 in0.0 mm 0.00 in0.0 mm 0.00 in0.0 mm
04:20 AM 64.8°F18.2°C 62.1°F16.7°C 91% 0.7 mph WSW1.1 kmh WSW 5.4 mph8.7 kmh 29.71 in1006.1 mb 0.00 in0.0 mm 0.00 in0.0 mm 0.00 in0.0 mm
04:30 AM 64.9°F18.3°C 62.2°F16.8°C 91% 2.7 mph ESE4.3 kmh ESE 10.0 mph16.1 kmh 29.74 in1007.1 mb 0.00 in0.0 mm 0.00 in0.0 mm 0.00 in0.0 mm
04:40 AM 65.3°F18.5°C 62.6°F17.0°C 91% 2.7 mph E4.3 kmh E 8.9 mph14.3 kmh 29.74 in1007.1 mb 0.05 in1.3 mm 0.30 in7.6 mm 0.05 in1.3 mm
04:50 AM 65.1°F18.4°C 62.7°F17.1°C 92% 6.8 mph ESE10.9 kmh ESE 10.4 mph16.7 kmh 29.74 in1007.1 mb 0.05 in1.3 mm 0.00 in0.0 mm 0.05 in1.3 mm
05:00 AM 65.3°F18.5°C 62.9°F17.2°C 92% 5.6 mph ESE9.0 kmh ESE 12.5 mph20.1 kmh 29.77 in1008.1 mb 0.05 in1.3 mm 0.00 in0.0 mm 0.05 in1.3 mm
05:10 AM 65.3°F18.5°C 62.9°F17.2°C 92% 0.5 mph SE0.8 kmh SE 6.1 mph9.8 kmh 29.74 in1007.1 mb 0.05 in1.3 mm 0.00 in0.0 mm 0.05 in1.3 mm
05:20 AM 65.1°F18.4°C 62.7°F17.1°C 92% 2.4 mph SE3.9 kmh SE 8.9 mph14.3 kmh 29.74 in1007.1 mb 0.05 in1.3 mm 0.00 in0.0 mm 0.05 in1.3 mm
05:30 AM 65.3°F18.5°C 62.9°F17.2°C 92% 1.7 mph S2.7 kmh S 6.8 mph10.9 kmh 29.71 in1006.1 mb 0.05 in1.3 mm 0.00 in0.0 mm 0.05 in1.3 mm
05:40 AM 65.7°F18.7°C 63.6°F17.6°C 93% 1.8 mph S2.9 kmh S 6.8 mph10.9 kmh 29.71 in1006.1 mb 0.00 in0.0 mm 0.00 in0.0 mm 0.05 in1.3 mm
05:50 AM 65.8°F18.8°C 63.8°F17.7°C 93% 0.7 mph S1.1 kmh S 5.0 mph8.0 kmh 29.71 in1006.1 mb 0.00 in0.0 mm 0.00 in0.0 mm 0.05 in1.3 mm
06:00 AM 65.7°F18.7°C 63.3°F17.4°C 92% Calm Calm -- 29.74 in1007.1 mb 0.00 in0.0 mm 0.00 in0.0 mm 0.05 in1.3 mm
06:10 AM 65.7°F18.7°C 63.3°F17.4°C 92% 0.9 mph E1.4 kmh E 5.7 mph9.2 kmh 29.71 in1006.1 mb 0.00 in0.0 mm 0.00 in0.0 mm 0.05 in1.3 mm
06:20 AM 65.8°F18.8°C 63.5°F17.5°C 92% 2.0 mph E3.2 kmh E 6.8 mph10.9 kmh 29.71 in1006.1 mb 0.00 in0.0 mm 0.00 in0.0 mm 0.05 in1.3 mm
06:30 AM 66.2°F19.0°C 63.8°F17.7°C 92% 0.1 mph ESE0.2 kmh ESE 5.0 mph8.0 kmh 29.71 in1006.1 mb 0.00 in0.0 mm 0.00 in0.0 mm 0.05 in1.3 mm
06:40 AM 67.1°F19.5°C 65.0°F18.3°C 93% 2.4 mph SSE3.9 kmh SSE 7.9 mph12.7 kmh 29.74 in1007.1 mb 0.00 in0.0 mm 0.00 in0.0 mm 0.05 in1.3 mm
06:50 AM 67.6°F19.8°C 65.5°F18.6°C 93% 2.4 mph S3.9 kmh S 5.7 mph9.2 kmh 29.74 in1007.1 mb 0.10 in2.5 mm 0.60 in15.2 mm 0.15 in3.8 mm
07:00 AM 67.8°F19.9°C 65.7°F18.7°C 93% 1.0 mph S1.6 kmh S 6.1 mph9.8 kmh 29.71 in1006.1 mb 0.10 in2.5 mm 0.00 in0.0 mm 0.15 in3.8 mm
07:10 AM 68.2°F20.1°C 65.8°F18.8°C 92% 2.4 mph S3.9 kmh S 6.8 mph10.9 kmh 29.71 in1006.1 mb 0.10 in2.5 mm 0.00 in0.0 mm 0.15 in3.8 mm
07:20 AM 68.4°F20.2°C 65.9°F18.8°C 92% 1.6 mph S2.6 kmh S 6.4 mph10.3 kmh 29.71 in1006.1 mb 0.15 in3.8 mm 0.30 in7.6 mm 0.20 in5.1 mm
07:30 AM 68.5°F20.3°C 66.1°F18.9°C 92% 0.1 mph S0.2 kmh S 1.8 mph2.9 kmh 29.71 in1006.1 mb 0.15 in3.8 mm 0.00 in0.0 mm 0.20 in5.1 mm
07:40 AM 68.5°F20.3°C 66.1°F18.9°C 92% 1.2 mph S1.9 kmh S 6.8 mph10.9 kmh 29.71 in1006.1 mb 0.15 in3.8 mm 0.00 in0.0 mm 0.20 in5.1 mm
07:50 AM 68.7°F20.4°C 66.3°F19.1°C 92% 0.2 mph WSW0.3 kmh WSW 6.8 mph10.9 kmh 29.71 in1006.1 mb 0.05 in1.3 mm 0.00 in0.0 mm 0.20 in5.1 mm
08:00 AM 68.7°F20.4°C 66.3°F19.1°C 92% 1.9 mph SSW3.1 kmh SSW 7.9 mph12.7 kmh 29.71 in1006.1 mb 0.05 in1.3 mm 0.00 in0.0 mm 0.20 in5.1 mm
08:10 AM 68.5°F20.3°C 66.1°F18.9°C 92% 3.8 mph S6.1 kmh S 10.0 mph16.1 kmh 29.71 in1006.1 mb 0.05 in1.3 mm 0.00 in0.0 mm 0.20 in5.1 mm
08:20 AM 68.4°F20.2°C 65.9°F18.8°C 92% 4.0 mph S6.4 kmh S 8.9 mph14.3 kmh 29.71 in1006.1 mb 0.00 in0.0 mm 0.00 in0.0 mm 0.20 in5.1 mm
08:30 AM 68.9°F20.5°C 66.5°F19.2°C 92% 4.1 mph S6.6 kmh S 8.6 mph13.8 kmh 29.74 in1007.1 mb 0.00 in0.0 mm 0.00 in0.0 mm 0.20 in5.1 mm
08:40 AM 69.4°F20.8°C 67.3°F19.6°C 93% 2.7 mph S4.3 kmh S 8.9 mph14.3 kmh 29.74 in1007.1 mb 0.00 in0.0 mm 0.00 in0.0 mm 0.20 in5.1 mm
08:50 AM 70.3°F21.3°C 67.9°F19.9°C 92% 3.3 mph S5.3 kmh S 10.0 mph16.1 kmh 29.74 in1007.1 mb 0.00 in0.0 mm 0.00 in0.0 mm 0.20 in5.1 mm
09:00 AM 70.2°F21.2°C 67.7°F19.8°C 92% 4.1 mph S6.6 kmh S 12.9 mph20.8 kmh 29.74 in1007.1 mb 0.00 in0.0 mm 0.00 in0.0 mm 0.20 in5.1 mm
09:10 AM 70.2°F21.2°C 67.4°F19.7°C 91% 4.8 mph S7.7 kmh S 14.0 mph22.5 kmh 29.77 in1008.1 mb 0.00 in0.0 mm 0.00 in0.0 mm 0.20 in5.1 mm
09:20 AM 69.3°F20.7°C 66.2°F19.0°C 90% 4.9 mph WNW7.9 kmh WNW 14.3 mph23.0 kmh 29.77 in1008.1 mb 0.00 in0.0 mm 0.00 in0.0 mm 0.20 in5.1 mm
09:30 AM 68.5°F20.3°C 64.8°F18.2°C 88% 4.6 mph NW7.4 kmh NW 12.9 mph20.8 kmh 29.77 in1008.1 mb 0.00 in0.0 mm 0.00 in0.0 mm 0.20 in5.1 mm
09:40 AM 68.2°F20.1°C 64.5°F18.1°C 88% 4.4 mph WNW7.1 kmh WNW 11.8 mph19.0 kmh 29.77 in1008.1 mb 0.00 in0.0 mm 0.00 in0.0 mm 0.20 in5.1 mm
09:50 AM 68.0°F20.0°C 64.3°F17.9°C 88% 4.2 mph WNW6.8 kmh WNW 10.0 mph16.1 kmh 29.77 in1008.1 mb 0.00 in0.0 mm 0.00 in0.0 mm 0.20 in5.1 mm
10:00 AM 68.0°F20.0°C 64.3°F17.9°C 88% 4.9 mph WNW7.9 kmh WNW 12.9 mph20.8 kmh 29.74 in1007.1 mb 0.00 in0.0 mm 0.00 in0.0 mm 0.20 in5.1 mm
10:10 AM 67.1°F19.5°C 63.1°F17.3°C 87% 5.4 mph NW8.7 kmh NW 12.9 mph20.8 kmh 29.77 in1008.1 mb 0.00 in0.0 mm 0.00 in0.0 mm 0.20 in5.1 mm
10:20 AM 66.4°F19.1°C 62.4°F16.9°C 87% 4.4 mph WNW7.1 kmh WNW 12.5 mph20.1 kmh 29.77 in1008.1 mb 0.00 in0.0 mm 0.00 in0.0 mm 0.20 in5.1 mm
10:30 AM 65.8°F18.8°C 62.2°F16.8°C 88% 2.2 mph WNW3.5 kmh WNW 6.8 mph10.9 kmh 29.77 in1008.1 mb 0.05 in1.3 mm 0.30 in7.6 mm 0.24 in6.1 mm
10:40 AM 65.3°F18.5°C 61.7°F16.5°C 88% 2.3 mph NW3.7 kmh NW 9.7 mph15.6 kmh 29.80 in1009.1 mb 0.05 in1.3 mm 0.00 in0.0 mm 0.24 in6.1 mm
10:50 AM 64.9°F18.3°C 61.3°F16.3°C 88% 4.1 mph WNW6.6 kmh WNW 12.2 mph19.6 kmh 29.80 in1009.1 mb 0.05 in1.3 mm 0.00 in0.0 mm 0.24 in6.1 mm
11:00 AM 64.8°F18.2°C 61.4°F16.3°C 89% 5.1 mph W8.2 kmh W 11.5 mph18.5 kmh 29.77 in1008.1 mb 0.09 in2.3 mm 0.05 in1.3 mm 0.29 in7.4 mm
11:10 AM 64.6°F18.1°C 61.3°F16.3°C 89% 3.4 mph W5.5 kmh W 7.9 mph12.7 kmh 29.77 in1008.1 mb 0.09 in2.3 mm 0.00 in0.0 mm 0.29 in7.4 mm
11:20 AM 64.6°F18.1°C 61.3°F16.3°C 89% 3.2 mph WNW5.1 kmh WNW 10.0 mph16.1 kmh 29.77 in1008.1 mb 0.09 in2.3 mm 0.00 in0.0 mm 0.29 in7.4 mm
11:30 AM 64.4°F18.0°C 61.1°F16.2°C 89% 3.4 mph W5.5 kmh W 10.0 mph16.1 kmh 29.80 in1009.1 mb 0.05 in1.3 mm 0.00 in0.0 mm 0.29 in7.4 mm
11:40 AM 64.6°F18.1°C 61.6°F16.4°C 90% 2.4 mph W3.9 kmh W 8.6 mph13.8 kmh 29.80 in1009.1 mb 0.05 in1.3 mm 0.00 in0.0 mm 0.29 in7.4 mm
11:50 AM 64.8°F18.2°C 61.8°F16.6°C 90% 0.5 mph WNW0.8 kmh WNW 4.3 mph6.9 kmh 29.80 in1009.1 mb 0.05 in1.3 mm 0.00 in0.0 mm 0.29 in7.4 mm
12:00 PM 65.1°F18.4°C 62.1°F16.7°C 90% 2.1 mph WNW3.4 kmh WNW 6.1 mph9.8 kmh 29.80 in1009.1 mb 0.00 in0.0 mm 0.00 in0.0 mm 0.29 in7.4 mm
12:10 PM 65.7°F18.7°C 63.0°F17.2°C 91% 1.9 mph NW3.1 kmh NW 6.1 mph9.8 kmh 29.80 in1009.1 mb 0.00 in0.0 mm 0.00 in0.0 mm 0.29 in7.4 mm
12:20 PM 66.4°F19.1°C 63.4°F17.4°C 90% 3.5 mph NW5.6 kmh NW 7.5 mph12.1 kmh 29.80 in1009.1 mb 0.00 in0.0 mm 0.00 in0.0 mm 0.29 in7.4 mm
12:30 PM 66.6°F19.2°C 63.2°F17.3°C 89% 5.4 mph WNW8.7 kmh WNW 12.2 mph19.6 kmh 29.80 in1009.1 mb 0.00 in0.0 mm 0.00 in0.0 mm 0.29 in7.4 mm
12:40 PM 66.0°F18.9°C 61.7°F16.5°C 86% 4.5 mph NW7.2 kmh NW 10.4 mph16.7 kmh 29.80 in1009.1 mb 0.00 in0.0 mm 0.00 in0.0 mm 0.29 in7.4 mm
12:50 PM 65.8°F18.8°C 61.5°F16.4°C 86% 3.9 mph WNW6.3 kmh WNW 10.0 mph16.1 kmh 29.80 in1009.1 mb 0.00 in0.0 mm 0.00 in0.0 mm 0.29 in7.4 mm
01:00 PM 65.8°F18.8°C 61.5°F16.4°C 86% 1.8 mph W2.9 kmh W 11.1 mph17.9 kmh 29.80 in1009.1 mb 0.00 in0.0 mm 0.00 in0.0 mm 0.29 in7.4 mm
01:10 PM 65.8°F18.8°C 61.5°F16.4°C 86% 3.1 mph WNW5.0 kmh WNW 8.9 mph14.3 kmh 29.80 in1009.1 mb 0.00 in0.0 mm 0.00 in0.0 mm 0.29 in7.4 mm
01:20 PM 65.7°F18.7°C 61.4°F16.3°C 86% 4.8 mph WNW7.7 kmh WNW 14.0 mph22.5 kmh 29.80 in1009.1 mb 0.00 in0.0 mm 0.00 in0.0 mm 0.29 in7.4 mm
01:30 PM 66.0°F18.9°C 61.4°F16.3°C 85% 5.4 mph WNW8.7 kmh WNW 12.5 mph20.1 kmh 29.80 in1009.1 mb 0.00 in0.0 mm 0.00 in0.0 mm 0.29 in7.4 mm
01:40 PM 65.8°F18.8°C 60.5°F15.8°C 83% 4.5 mph NW7.2 kmh NW 10.4 mph16.7 kmh 29.83 in1010.2 mb 0.00 in0.0 mm 0.00 in0.0 mm 0.29 in7.4 mm
01:50 PM 65.5°F18.6°C 60.2°F15.7°C 83% 4.9 mph WNW7.9 kmh WNW 12.9 mph20.8 kmh 29.83 in1010.2 mb 0.00 in0.0 mm 0.00 in0.0 mm 0.29 in7.4 mm
02:00 PM 65.3°F18.5°C 59.7°F15.4°C 82% 4.6 mph W7.4 kmh W 15.4 mph24.8 kmh 29.83 in1010.2 mb 0.00 in0.0 mm 0.00 in0.0 mm 0.29 in7.4 mm
02:10 PM 65.1°F18.4°C 59.5°F15.3°C 82% 5.5 mph W8.9 kmh W 14.3 mph23.0 kmh 29.83 in1010.2 mb 0.00 in0.0 mm 0.00 in0.0 mm 0.29 in7.4 mm
02:20 PM 65.8°F18.8°C 60.2°F15.7°C 82% 4.6 mph WNW7.4 kmh WNW 11.5 mph18.5 kmh 29.83 in1010.2 mb 0.00 in0.0 mm 0.00 in0.0 mm 0.29 in7.4 mm
02:30 PM 66.2°F19.0°C 59.5°F15.3°C 79% 5.7 mph NW9.2 kmh NW 15.4 mph24.8 kmh 29.86 in1011.2 mb 0.00 in0.0 mm 0.00 in0.0 mm 0.29 in7.4 mm
02:40 PM 66.6°F19.2°C 59.1°F15.1°C 77% 4.6 mph WNW7.4 kmh WNW 12.5 mph20.1 kmh 29.83 in1010.2 mb 0.00 in0.0 mm 0.00 in0.0 mm 0.29 in7.4 mm
02:50 PM 66.0°F18.9°C 58.2°F14.6°C 76% 5.4 mph WNW8.7 kmh WNW 12.5 mph20.1 kmh 29.83 in1010.2 mb 0.00 in0.0 mm 0.00 in0.0 mm 0.29 in7.4 mm
03:00 PM 65.8°F18.8°C 58.1°F14.5°C 76% 5.4 mph W8.7 kmh W 15.4 mph24.8 kmh 29.80 in1009.1 mb 0.00 in0.0 mm 0.00 in0.0 mm 0.29 in7.4 mm
03:10 PM 65.5°F18.6°C 57.3°F14.1°C 75% 4.7 mph WNW7.6 kmh WNW 10.7 mph17.2 kmh 29.83 in1010.2 mb 0.00 in0.0 mm 0.00 in0.0 mm 0.29 in7.4 mm
03:20 PM 65.3°F18.5°C 57.2°F14.0°C 75% 3.1 mph NW5.0 kmh NW 15.4 mph24.8 kmh 29.83 in1010.2 mb 0.00 in0.0 mm 0.00 in0.0 mm 0.29 in7.4 mm
03:30 PM 64.9°F18.3°C 56.8°F13.8°C 75% 4.7 mph NW7.6 kmh NW 10.4 mph16.7 kmh 29.86 in1011.2 mb 0.00 in0.0 mm 0.00 in0.0 mm 0.29 in7.4 mm
03:40 PM 64.6°F18.1°C 56.1°F13.4°C 74% 4.4 mph WNW7.1 kmh WNW 11.8 mph19.0 kmh 29.86 in1011.2 mb 0.00 in0.0 mm 0.00 in0.0 mm 0.29 in7.4 mm
03:50 PM 64.0°F17.8°C 54.8°F12.7°C 72% 5.1 mph W8.2 kmh W 11.8 mph19.0 kmh 29.86 in1011.2 mb 0.00 in0.0 mm 0.00 in0.0 mm 0.29 in7.4 mm
04:00 PM 63.5°F17.5°C 54.3°F12.4°C 72% 3.4 mph W5.5 kmh W 8.6 mph13.8 kmh 29.86 in1011.2 mb 0.00 in0.0 mm 0.00 in0.0 mm 0.29 in7.4 mm
04:10 PM 63.1°F17.3°C 53.6°F12.0°C 71% 3.3 mph W5.3 kmh W 9.3 mph15.0 kmh 29.89 in1012.2 mb 0.00 in0.0 mm 0.00 in0.0 mm 0.29 in7.4 mm
04:20 PM 62.8°F17.1°C 53.2°F11.8°C 71% 1.7 mph W2.7 kmh W 6.1 mph9.8 kmh 29.89 in1012.2 mb 0.00 in0.0 mm 0.00 in0.0 mm 0.29 in7.4 mm
04:30 PM 62.6°F17.0°C 53.1°F11.7°C 71% 1.5 mph WNW2.4 kmh WNW 6.4 mph10.3 kmh 29.86 in1011.2 mb 0.00 in0.0 mm 0.00 in0.0 mm 0.29 in7.4 mm
04:40 PM 62.6°F17.0°C 53.4°F11.9°C 72% 2.0 mph WNW3.2 kmh WNW 6.4 mph10.3 kmh 29.89 in1012.2 mb 0.00 in0.0 mm 0.00 in0.0 mm 0.29 in7.4 mm
04:50 PM 62.4°F16.9°C 53.6°F12.0°C 73% 0.7 mph W1.1 kmh W 6.8 mph10.9 kmh 29.89 in1012.2 mb 0.00 in0.0 mm 0.00 in0.0 mm 0.29 in7.4 mm
05:00 PM 62.4°F16.9°C 54.0°F12.2°C 74% 1.7 mph W2.7 kmh W 6.8 mph10.9 kmh 29.86 in1011.2 mb 0.00 in0.0 mm 0.00 in0.0 mm 0.29 in7.4 mm
05:10 PM 62.4°F16.9°C 53.6°F12.0°C 73% 2.9 mph WNW4.7 kmh WNW 9.3 mph15.0 kmh 29.89 in1012.2 mb 0.00 in0.0 mm 0.00 in0.0 mm 0.29 in7.4 mm
05:20 PM 62.4°F16.9°C 53.3°F11.8°C 72% 4.0 mph WNW6.4 kmh WNW 11.5 mph18.5 kmh 29.89 in1012.2 mb 0.00 in0.0 mm 0.00 in0.0 mm 0.29 in7.4 mm
05:30 PM 62.4°F16.9°C 53.6°F12.0°C 73% 3.9 mph WNW6.3 kmh WNW 12.2 mph19.6 kmh 29.89 in1012.2 mb 0.00 in0.0 mm 0.00 in0.0 mm 0.29 in7.4 mm
05:40 PM 62.2°F16.8°C 52.7°F11.5°C 71% 3.5 mph NW5.6 kmh NW 9.3 mph15.0 kmh 29.89 in1012.2 mb 0.00 in0.0 mm 0.00 in0.0 mm 0.29 in7.4 mm
05:50 PM 62.1°F16.7°C 52.9°F11.6°C 72% 2.8 mph W4.5 kmh W 10.0 mph16.1 kmh 29.89 in1012.2 mb 0.00 in0.0 mm 0.00 in0.0 mm 0.29 in7.4 mm
06:00 PM 61.7°F16.5°C 51.8°F11.0°C 70% 3.2 mph NW5.1 kmh NW 8.9 mph14.3 kmh 29.89 in1012.2 mb 0.00 in0.0 mm 0.00 in0.0 mm 0.29 in7.4 mm
06:10 PM 61.3°F16.3°C 51.5°F10.8°C 70% 2.2 mph WNW3.5 kmh WNW 8.6 mph13.8 kmh 29.89 in1012.2 mb 0.00 in0.0 mm 0.00 in0.0 mm 0.29 in7.4 mm
06:20 PM 61.0°F16.1°C 51.1°F10.6°C 70% 2.5 mph NW4.0 kmh NW 8.9 mph14.3 kmh 29.89 in1012.2 mb 0.00 in0.0 mm 0.00 in0.0 mm 0.29 in7.4 mm
06:30 PM 60.4°F15.8°C 50.6°F10.3°C 70% 1.0 mph NW1.6 kmh NW 9.3 mph15.0 kmh 29.89 in1012.2 mb 0.00 in0.0 mm 0.00 in0.0 mm 0.29 in7.4 mm
06:40 PM 59.7°F15.4°C 50.3°F10.2°C 71% 0.7 mph W1.1 kmh W 4.7 mph7.6 kmh 29.89 in1012.2 mb 0.00 in0.0 mm 0.00 in0.0 mm 0.29 in7.4 mm
06:50 PM 59.2°F15.1°C 49.8°F9.9°C 71% Calm Calm -- 29.89 in1012.2 mb 0.00 in0.0 mm 0.00 in0.0 mm 0.29 in7.4 mm
07:00 PM 58.8°F14.9°C 49.8°F9.9°C 72% 0.1 mph W0.2 kmh W 3.6 mph5.8 kmh 29.89 in1012.2 mb 0.00 in0.0 mm 0.00 in0.0 mm 0.29 in7.4 mm
07:10 PM 58.3°F14.6°C 49.3°F9.6°C 72% 0.1 mph W0.2 kmh W 3.9 mph6.3 kmh 29.89 in1012.2 mb 0.00 in0.0 mm 0.00 in0.0 mm 0.29 in7.4 mm
07:20 PM 58.1°F14.5°C 49.5°F9.7°C 73% 0.4 mph W0.6 kmh W 4.7 mph7.6 kmh 29.89 in1012.2 mb 0.00 in0.0 mm 0.00 in0.0 mm 0.29 in7.4 mm
07:30 PM 57.9°F14.4°C 49.7°F9.8°C 74% Calm Calm -- 29.89 in1012.2 mb 0.00 in0.0 mm 0.00 in0.0 mm 0.29 in7.4 mm
07:40 PM 57.7°F14.3°C 49.5°F9.7°C 74% Calm Calm -- 29.89 in1012.2 mb 0.00 in0.0 mm 0.00 in0.0 mm 0.29 in7.4 mm
07:50 PM 57.7°F14.3°C 49.9°F9.9°C 75% 0.1 mph W0.2 kmh W 2.5 mph4.0 kmh 29.89 in1012.2 mb 0.00 in0.0 mm 0.00 in0.0 mm 0.29 in7.4 mm
08:00 PM 57.6°F14.2°C 49.7°F9.8°C 75% Calm Calm -- 29.89 in1012.2 mb 0.00 in0.0 mm 0.00 in0.0 mm 0.29 in7.4 mm
08:10 PM 57.2°F14.0°C 49.3°F9.6°C 75% Calm Calm -- 29.89 in1012.2 mb 0.00 in0.0 mm 0.00 in0.0 mm 0.29 in7.4 mm
08:20 PM 56.8°F13.8°C 49.4°F9.7°C 76% Calm Calm -- 29.89 in1012.2 mb 0.00 in0.0 mm 0.00 in0.0 mm 0.29 in7.4 mm
08:30 PM 56.5°F13.6°C 49.0°F9.4°C 76% Calm Calm -- 29.89 in1012.2 mb 0.00 in0.0 mm 0.00 in0.0 mm 0.29 in7.4 mm
08:40 PM 55.8°F13.2°C 48.3°F9.1°C 76% Calm Calm -- 29.89 in1012.2 mb 0.00 in0.0 mm 0.00 in0.0 mm 0.29 in7.4 mm
08:50 PM 55.4°F13.0°C 48.3°F9.1°C 77% Calm Calm -- 29.89 in1012.2 mb 0.00 in0.0 mm 0.00 in0.0 mm 0.29 in7.4 mm
09:00 PM 54.9°F12.7°C 47.8°F8.8°C 77% Calm Calm -- 29.89 in1012.2 mb 0.00 in0.0 mm 0.00 in0.0 mm 0.29 in7.4 mm
09:10 PM 54.5°F12.5°C 47.8°F8.8°C 78% Calm Calm -- 29.89 in1012.2 mb 0.00 in0.0 mm 0.00 in0.0 mm 0.29 in7.4 mm
09:20 PM 54.3°F12.4°C 47.9°F8.8°C 79% Calm Calm -- 29.89 in1012.2 mb 0.00 in0.0 mm 0.00 in0.0 mm 0.29 in7.4 mm
09:30 PM 54.1°F12.3°C 48.1°F8.9°C 80% Calm Calm -- 29.89 in1012.2 mb 0.00 in0.0 mm 0.00 in0.0 mm 0.29 in7.4 mm
09:40 PM 54.1°F12.3°C 48.4°F9.1°C 81% 0.1 mph SE0.2 kmh SE 4.7 mph7.6 kmh 29.89 in1012.2 mb 0.00 in0.0 mm 0.00 in0.0 mm 0.29 in7.4 mm
09:50 PM 54.3°F12.4°C 48.9°F9.4°C 82% 0.1 mph SE0.2 kmh SE 1.8 mph2.9 kmh 29.89 in1012.2 mb 0.00 in0.0 mm 0.00 in0.0 mm 0.29 in7.4 mm
10:00 PM 54.3°F12.4°C 48.9°F9.4°C 82% Calm Calm -- 29.89 in1012.2 mb 0.00 in0.0 mm 0.00 in0.0 mm 0.29 in7.4 mm
10:10 PM 54.7°F12.6°C 49.6°F9.8°C 83% Calm Calm -- 29.92 in1013.2 mb 0.00 in0.0 mm 0.00 in0.0 mm 0.29 in7.4 mm
10:20 PM 54.9°F12.7°C 50.1°F10.1°C 84% Calm Calm -- 29.92 in1013.2 mb 0.00 in0.0 mm 0.00 in0.0 mm 0.29 in7.4 mm
10:30 PM 55.0°F12.8°C 50.3°F10.2°C 84% 0.2 mph S0.3 kmh S 3.6 mph5.8 kmh 29.89 in1012.2 mb 0.00 in0.0 mm 0.00 in0.0 mm 0.29 in7.4 mm
10:40 PM 55.4°F13.0°C 51.0°F10.6°C 85% 0.6 mph WSW1.0 kmh WSW 4.7 mph7.6 kmh 29.92 in1013.2 mb 0.14 in3.6 mm 0.84 in21.3 mm 0.43 in10.9 mm
10:50 PM 55.6°F13.1°C 51.5°F10.8°C 86% 0.8 mph S1.3 kmh S 5.7 mph9.2 kmh 29.92 in1013.2 mb 0.19 in4.8 mm 0.30 in7.6 mm 0.48 in12.2 mm
11:00 PM 55.9°F13.3°C 52.1°F11.2°C 87% Calm Calm 1.8 mph2.9 kmh 29.89 in1012.2 mb 0.19 in4.8 mm 0.00 in0.0 mm 0.48 in12.2 mm
11:10 PM 55.9°F13.3°C 52.1°F11.2°C 87% 0.4 mph WNW0.6 kmh WNW 3.6 mph5.8 kmh 29.92 in1013.2 mb 0.19 in4.8 mm 0.00 in0.0 mm 0.48 in12.2 mm
11:20 PM 55.8°F13.2°C 51.9°F11.1°C 87% Calm Calm -- 29.92 in1013.2 mb 0.19 in4.8 mm 0.00 in0.0 mm 0.48 in12.2 mm
11:30 PM 55.6°F13.1°C 51.8°F11.0°C 87% Calm Calm -- 29.92 in1013.2 mb 0.19 in4.8 mm 0.00 in0.0 mm 0.48 in12.2 mm
11:40 PM 55.2°F12.9°C 51.1°F10.6°C 86% Calm Calm -- 29.89 in1012.2 mb 0.06 in1.5 mm 0.00 in0.0 mm 0.48 in12.2 mm
11:50 PM 55.0°F12.8°C 50.9°F10.5°C 86% Calm Calm -- 29.89 in1012.2 mb 0.00 in0.0 mm 0.00 in0.0 mm 0.48 in12.2 mm